Alachua, FL (32615)

10:52 AM EDT on September 22, 2014 (GMT -0400)
USGS | Change Station
CLOSE
Current Station
Personal Weather Station
Location: Gainesville, FL
Elevation: 157 ft
Nearby Weather Stations

Elev 157 ft 29.73 °N, 82.42 °W | Updated 8 minutes ago

Clear
Clear
80.4 °F
Feels Like 86 °F
N
0.0
Wind Variable Wind from North
Gusts 7.0 mph

Today
High -- | Low -- °F
--% Chance of Precip.
Yesterday
High -- | Low -- °F
Precip. -- in
7:18 AM 7:26 PM
Waning Crescent, 3% visible
Pressure 30.04 in
Visibility 10.0 miles
Clouds Few 5000 ft
Heat Index 86 °F
Dew Point 76 °F
Humidity 85%
Rainfall 0.00 in
Snow Depth Not available.
UV 4 out of 12
Pollen 7.40 out of 12
Air Quality Not available.
Flu Activity Not available.
METAR KGNV 221353Z 00000KT 10SM FEW050 26/23 A3005 RMK AO2 SLP172 T02610228

More Conditions Fewer Conditions

Pressure 30.04 in
Visibility 10.0 miles
Clouds Few 5000 ft
Heat Index 86 °F
Dew Point 76 °F
Humidity 85%
Rainfall 0.00 in
Snow Depth Not available.
UV 4 out of 12
Pollen 7.40 out of 12
Air Quality Not available.
Flu Activity Not available.
METAR KGNV 221353Z 00000KT 10SM FEW050 26/23 A3005 RMK AO2 SLP172 T02610228

More Conditions Fewer Conditions

10-Day Weather Forecast

Almanac

Astronomy

Sep. 22, 2014 Rise Set
Actual Time 7:18 AM EDT 7:26 PM EDT
Civil Twilight 6:54 AM EDT 7:50 PM EDT
Nautical Twilight 6:26 AM EDT 8:18 PM EDT
Astronomical Twilight 5:58 AM EDT 8:46 PM EDT
Moon 5:50 AM EDT 6:30 PM EDT
Length of Visible Light 12h 55m
Length of Day
12h 08m
Tomorrow will be 1m 47s shorter.
Waning Crescent, 3% of the Moon is Illuminated
Today
Waning Crescent
Sep 24
New
Oct 1
First Quarter
Oct 8
Full
Oct 15
Last Quarter

Today's Extremes

State Highs State Lows

Community

WunderPhotos

Upload Photos

1,755,459 photos uploaded!

WunderBlogs® & News

Nearby

Snow Depth

Station Depth Elevation
No new snow has been reported.

Earthquake Activity

City Distance Mag. Time & Date
No recent earthquake activity has been reported nearby.
Minimum magnitude displayed is 2.5.

Coastal Water Temperatures

Place Temperature
No Stations Reporting

Nearby Weather Stations